KGIF/GIF METAR and TAF weather

Enter ICAO airport designator
Station Type Date Time Source
KGIF METAR 2024/02/26 17:53 UTC NOAA

KGIF 261753Z AUTO VRB04KT 10SM CLR 23/04 A3022 RMK AO2 SLP233 T02280039 10233 20089 58013


Station Type Date Time Source
KGIF Decoded METAR 2024/02/26 17:53 UTC NOAA

WINTER HAVENS GILBERT AIRPORT , FL, United States (KGIF) 28-04N 81-45W 43M
Feb 26, 2024 - 12:53 PM EST / 2024.02.26 1753 UTC
Wind: Variable at 5 MPH (4 KT):0
Visibility: 10 mile(s):0
Sky conditions: clear
Temperature: 73.0 F (22.8 C)
Dew Point: 39.0 F (3.9 C)
Relative Humidity: 29%
Pressure (altimeter): 30.22 in. Hg (1023 hPa)
Pressure tendency: 0.04 inches (1.3 hPa) lower than three hours ago
ob: KGIF 261753Z AUTO VRB04KT 10SM CLR 23/04 A3022 RMK AO2 SLP233 T02280039 10233 20089 58013
cycle: 18

Station Type Date Time Source
KGIF TAF UTC NOAA

Error!

Example: see airport list